Pagina principale
METAR-TAF:

METAR-TAF

Aeroporti :

Aeroporto Internazionale di Baghdad

Baghdad, Iraq

latitudine: 33-15-45N, longitudine: 44-14-04E, altezza: 35 m

Osservazione

Il bollettino è stato emesso 16 minuti fa, alle 19:00 UTC
Vento 7 kt da sud/sud-est
Temperature 30°C
Umidità 25%
Pressione 1008 hPa
Visibilità 10 km o più
nessuna nube inferiore a 1500 m e nessun cumulonembo

METAR: ORBI 241900Z 15007KT CAVOK 30/08 Q1008 NOSIG

Ora: 22:16 (19:16 UTC)

Previsione

Il bollettino è stato emesso 9 ore e 16 minuti fa, alle 10:00 UTC
Previsione valida dal 24 alle 12 UTC al 25 alle 12 UTC
Vento 5 kt da sud-ovest
Visibilità 10 km o più
nessuna nube inferiore a 1500 m e nessun cumulonembo
Evoluzione graduale
dal 24 alle 18 UTC al 24 alle 20 UTC
Vento 15 kt da sud/sud-est

TAF: ORBI 241000Z 2412/2512 23005KT CAVOK BECMG 2418/2420 16015KT

Osservazioni e previsioni meteorologiche di più di 4000 aeroporti (messaggi METAR e TAF).

Le stazioni disponibili sono rappresentate dai dischi gialli e rossi sulla carta.

Puntare il mouse per vedere il nome della stazione.

Clicca sopra per visualizzare le osservazioni e previsioni meteorologiche.

Per cambiare la mappa : fare clic sui pulsanti verdi con una croce nera per ingrandire, il pulsante verde con un trattino per diminuire, o sulla freccia verde per le mappe adiacenti.


METAR-TAF: